createdAt,value
2018-07-24T00:00:10.891Z,0.00
2018-07-24T00:01:10.773Z,0.00
2018-07-24T00:02:10.680Z,0.00
2018-07-24T00:03:10.592Z,0.00
2018-07-24T00:04:10.505Z,0.00
2018-07-24T00:05:10.445Z,0.00
2018-07-24T00:06:10.323Z,0.00
2018-07-24T00:07:10.235Z,0.00
2018-07-24T00:08:10.145Z,0.00
2018-07-24T00:09:10.058Z,0.00
2018-07-24T00:10:09.999Z,0.00
2018-07-24T00:11:09.881Z,0.00
2018-07-24T00:12:09.787Z,0.00
2018-07-24T00:13:09.698Z,0.00
2018-07-24T00:14:09.610Z,0.00
2018-07-24T00:15:09.641Z,0.00
2018-07-24T00:16:09.428Z,0.00
2018-07-24T00:17:09.338Z,0.00
2018-07-24T00:18:09.250Z,0.00
2018-07-24T00:19:09.159Z,0.00
2018-07-24T00:20:09.101Z,0.00
2018-07-24T00:21:08.982Z,0.00
2018-07-24T00:22:08.891Z,0.00
2018-07-24T00:23:08.804Z,0.00
2018-07-24T00:24:08.712Z,0.00
2018-07-24T00:25:08.654Z,0.00
2018-07-24T00:26:08.536Z,0.00
2018-07-24T00:27:08.445Z,0.00
2018-07-24T00:28:08.353Z,0.00
2018-07-24T00:29:08.263Z,0.00
2018-07-24T00:30:08.205Z,0.00
2018-07-24T00:31:08.086Z,0.00
2018-07-24T00:32:08.026Z,0.00
2018-07-24T00:33:07.905Z,0.00
2018-07-24T00:34:07.816Z,0.00
2018-07-24T00:35:07.756Z,0.00
2018-07-24T00:36:07.728Z,0.00
2018-07-24T00:37:07.548Z,0.00
2018-07-24T00:38:07.460Z,0.00
2018-07-24T00:39:07.369Z,0.00
2018-07-24T00:40:07.309Z,0.00
2018-07-24T00:41:07.188Z,0.00
2018-07-24T00:42:07.100Z,0.00
2018-07-24T00:43:07.104Z,0.00
2018-07-24T00:44:06.919Z,0.00
2018-07-24T00:45:06.860Z,0.00
2018-07-24T00:46:06.741Z,0.00
2018-07-24T00:47:06.652Z,0.00
2018-07-24T00:48:06.560Z,0.00
2018-07-24T00:49:06.470Z,0.00
2018-07-24T00:50:06.504Z,0.00
2018-07-24T00:51:06.290Z,0.00
2018-07-24T00:52:06.200Z,0.00
2018-07-24T00:53:06.115Z,0.00
2018-07-24T00:54:06.091Z,0.00
2018-07-24T00:55:05.965Z,0.00
2018-07-24T00:56:05.841Z,0.00
2018-07-24T00:57:05.847Z,0.00
2018-07-24T00:58:05.664Z,0.00
2018-07-24T00:59:05.576Z,0.00
2018-07-24T01:00:05.515Z,0.00
2018-07-24T01:01:05.393Z,0.00
2018-07-24T01:02:05.304Z,0.00
2018-07-24T01:03:05.216Z,0.00
2018-07-24T01:04:05.216Z,0.00
2018-07-24T01:05:05.067Z,0.00
2018-07-24T01:06:04.947Z,0.00
2018-07-24T01:07:04.860Z,0.00
2018-07-24T01:08:04.766Z,0.00
2018-07-24T01:09:04.678Z,0.00
2018-07-24T01:10:04.620Z,0.00
2018-07-24T01:11:04.593Z,0.00
2018-07-24T01:12:04.405Z,0.00
2018-07-24T01:13:04.316Z,0.00
2018-07-24T01:14:04.229Z,0.00
2018-07-24T01:15:04.170Z,0.00
2018-07-24T01:16:04.050Z,0.00
2018-07-24T01:17:03.959Z,0.00
2018-07-24T01:18:03.964Z,0.00
2018-07-24T01:19:03.779Z,0.00
2018-07-24T01:20:03.719Z,0.00
2018-07-24T01:21:03.600Z,0.00
2018-07-24T01:22:03.511Z,0.00
2018-07-24T01:23:03.423Z,0.00
2018-07-24T01:24:03.329Z,0.00
2018-07-24T01:25:03.366Z,0.00
2018-07-24T01:26:03.157Z,0.00
2018-07-24T01:27:03.062Z,0.00
2018-07-24T01:28:02.976Z,0.00
2018-07-24T01:29:02.883Z,0.00
2018-07-24T01:30:02.796Z,0.00
2018-07-24T01:31:02.736Z,0.00
2018-07-24T01:32:02.708Z,0.00
2018-07-24T01:33:02.529Z,0.00
2018-07-24T01:34:02.433Z,0.00
2018-07-24T01:35:02.355Z,0.00
2018-07-24T01:36:02.285Z,0.00
2018-07-24T01:37:02.165Z,0.00
2018-07-24T01:38:02.076Z,0.00
2018-07-24T01:39:02.078Z,0.00
2018-07-24T01:40:01.895Z,0.00
2018-07-24T01:41:01.835Z,0.00
2018-07-24T01:42:01.712Z,0.00
2018-07-24T01:43:01.625Z,0.00
2018-07-24T01:44:01.534Z,0.00
2018-07-24T01:45:01.447Z,0.00
2018-07-24T01:46:01.479Z,0.00
2018-07-24T01:47:01.262Z,0.00
2018-07-24T01:48:01.174Z,0.00
2018-07-24T01:49:01.127Z,0.00
2018-07-24T01:50:00.999Z,0.00
2018-07-24T01:51:00.936Z,0.00
2018-07-24T01:52:00.815Z,0.00
2018-07-24T01:53:00.818Z,0.00
2018-07-24T01:54:00.634Z,0.00
2018-07-24T01:55:00.543Z,0.00
2018-07-24T01:56:00.488Z,0.00
2018-07-24T01:57:00.362Z,0.00
2018-07-24T01:58:00.271Z,0.00
2018-07-24T01:59:00.183Z,0.00
2018-07-24T02:00:00.093Z,0.00
2018-07-24T02:01:00.034Z,0.00
2018-07-24T02:01:59.916Z,0.00
2018-07-24T02:02:59.822Z,0.00
2018-07-24T02:03:59.736Z,0.00
2018-07-24T02:04:59.655Z,0.00
2018-07-24T02:05:59.586Z,0.00
2018-07-24T02:06:59.463Z,0.00
2018-07-24T02:07:59.374Z,0.00
2018-07-24T02:08:59.283Z,0.00
2018-07-24T02:09:59.192Z,0.00
2018-07-24T02:10:59.138Z,0.00
2018-07-24T02:11:59.014Z,0.00
2018-07-24T02:12:58.927Z,0.00
2018-07-24T02:13:58.834Z,0.00
2018-07-24T02:14:58.747Z,0.00
2018-07-24T02:15:58.682Z,0.00
2018-07-24T02:16:58.563Z,0.00
2018-07-24T02:17:58.476Z,0.00
2018-07-24T02:18:58.384Z,0.00
2018-07-24T02:19:58.293Z,0.00
2018-07-24T02:20:58.233Z,0.00
2018-07-24T02:21:58.113Z,0.00
2018-07-24T02:22:58.021Z,0.00
2018-07-24T02:23:57.931Z,0.00
2018-07-24T02:24:57.850Z,0.00
2018-07-24T02:25:57.797Z,0.00
2018-07-24T02:26:57.660Z,0.00
2018-07-24T02:27:57.570Z,0.00
2018-07-24T02:28:57.481Z,0.00
2018-07-24T02:29:57.391Z,0.00
2018-07-24T02:30:57.332Z,0.00
2018-07-24T02:31:57.225Z,0.00
2018-07-24T02:32:57.120Z,0.00
2018-07-24T02:33:57.031Z,0.00
2018-07-24T02:34:56.940Z,0.00
2018-07-24T02:35:56.893Z,0.00
2018-07-24T02:36:56.761Z,0.00
2018-07-24T02:37:56.671Z,0.00
2018-07-24T02:38:56.580Z,0.00
2018-07-24T02:39:56.489Z,0.00
2018-07-24T02:40:56.429Z,0.00
2018-07-24T02:41:56.308Z,0.00
2018-07-24T02:42:56.219Z,0.00
2018-07-24T02:43:56.123Z,0.00
2018-07-24T02:44:56.037Z,0.00
2018-07-24T02:45:55.976Z,0.00
2018-07-24T02:46:55.861Z,4.00
2018-07-24T02:47:55.763Z,4.00
2018-07-24T02:48:55.675Z,0.00
2018-07-24T02:49:55.587Z,0.00
2018-07-24T02:50:55.522Z,4.00
2018-07-24T02:51:55.401Z,4.00
2018-07-24T02:52:55.312Z,4.00
2018-07-24T02:53:55.223Z,4.00
2018-07-24T02:54:55.135Z,4.00
2018-07-24T02:55:55.450Z,8.00
2018-07-24T02:56:54.948Z,8.00
2018-07-24T02:57:54.879Z,8.00
2018-07-24T02:58:54.768Z,8.00
2018-07-24T02:59:54.676Z,12.00
2018-07-24T03:00:54.592Z,12.00
2018-07-24T03:01:54.529Z,16.00
2018-07-24T03:02:54.412Z,16.00
2018-07-24T03:03:54.318Z,20.00
2018-07-24T03:04:54.228Z,20.00
2018-07-24T03:05:54.140Z,24.00
2018-07-24T03:06:54.074Z,28.00
2018-07-24T03:07:53.953Z,36.00
2018-07-24T03:08:53.863Z,36.00
2018-07-24T03:09:53.772Z,40.00
2018-07-24T03:10:53.684Z,48.00
2018-07-24T03:11:53.624Z,56.00
2018-07-24T03:12:53.500Z,60.00
2018-07-24T03:13:53.422Z,68.00
2018-07-24T03:14:53.321Z,76.00
2018-07-24T03:15:53.235Z,84.00
2018-07-24T03:16:53.172Z,100.00
2018-07-24T03:17:53.049Z,108.00
2018-07-24T03:18:52.959Z,120.00
2018-07-24T03:19:52.867Z,132.00
2018-07-24T03:20:52.777Z,148.00
2018-07-24T03:21:52.722Z,164.00
2018-07-24T03:22:52.597Z,176.00
2018-07-24T03:23:52.504Z,196.00
2018-07-24T03:24:52.415Z,212.00
2018-07-24T03:25:52.324Z,228.00
2018-07-24T03:26:52.265Z,252.00
2018-07-24T03:27:52.143Z,272.00
2018-07-24T03:28:52.061Z,296.00
2018-07-24T03:29:51.960Z,316.00
2018-07-24T03:30:51.966Z,344.00
2018-07-24T03:31:51.811Z,368.00
2018-07-24T03:32:51.690Z,392.00
2018-07-24T03:33:51.599Z,420.00
2018-07-24T03:34:51.509Z,448.00
2018-07-24T03:35:51.418Z,476.00
2018-07-24T03:36:51.356Z,512.00
2018-07-24T03:37:51.330Z,540.00
2018-07-24T03:38:51.148Z,572.00
2018-07-24T03:39:51.056Z,604.00
2018-07-24T03:40:50.967Z,640.00
2018-07-24T03:41:50.907Z,676.00
2018-07-24T03:42:50.785Z,716.00
2018-07-24T03:43:50.695Z,756.00
2018-07-24T03:44:50.693Z,792.00
2018-07-24T03:45:50.515Z,836.00
2018-07-24T03:46:50.457Z,872.00
2018-07-24T03:47:50.334Z,916.00
2018-07-24T03:48:50.240Z,960.00
2018-07-24T03:49:50.163Z,1004.00
2018-07-24T03:50:50.063Z,1052.00
2018-07-24T03:51:50.097Z,1100.00
2018-07-24T03:52:49.883Z,1144.00
2018-07-24T03:53:49.791Z,1192.00
2018-07-24T03:54:49.700Z,1240.00
2018-07-24T03:55:49.612Z,1288.00
2018-07-24T03:56:49.549Z,1336.00
2018-07-24T03:57:49.488Z,1384.00
2018-07-24T03:58:49.432Z,1436.00
2018-07-24T03:59:49.248Z,1488.00
2018-07-24T04:00:49.157Z,1544.00
2018-07-24T04:01:49.107Z,1600.00
2018-07-24T04:02:48.978Z,1652.00
2018-07-24T04:03:48.886Z,1704.00
2018-07-24T04:04:48.794Z,1752.00
2018-07-24T04:05:48.801Z,1804.00
2018-07-24T04:06:48.646Z,1860.00
2018-07-24T04:07:48.527Z,1916.00
2018-07-24T04:08:48.431Z,1976.00
2018-07-24T04:09:48.346Z,2036.00
2018-07-24T04:10:48.254Z,2100.00
2018-07-24T04:11:48.193Z,2160.00
2018-07-24T04:12:48.169Z,2216.00
2018-07-24T04:13:47.984Z,2272.00
2018-07-24T04:14:47.893Z,2332.00
2018-07-24T04:15:47.801Z,2384.00
2018-07-24T04:16:47.745Z,2432.00
2018-07-24T04:17:47.622Z,2488.00
2018-07-24T04:18:47.535Z,2548.00
2018-07-24T04:19:47.537Z,2604.00
2018-07-24T04:20:47.349Z,2660.00
2018-07-24T04:21:47.293Z,2720.00
2018-07-24T04:22:47.169Z,2780.00
2018-07-24T04:23:47.080Z,2844.00
2018-07-24T04:24:46.990Z,2916.00
2018-07-24T04:25:46.904Z,2988.00
2018-07-24T04:26:46.929Z,3048.00
2018-07-24T04:27:46.726Z,3116.00
2018-07-24T04:28:46.631Z,3172.00
2018-07-24T04:29:54.523Z,3232.00
2018-07-24T04:30:54.130Z,3292.00
2018-07-24T04:31:46.642Z,3352.00
2018-07-24T04:32:46.300Z,3460.00
2018-07-24T04:33:46.180Z,3524.00
2018-07-24T04:34:46.088Z,3536.00
2018-07-24T04:35:45.996Z,3596.00
2018-07-24T04:36:45.909Z,3660.00
2018-07-24T04:37:45.945Z,3724.00
2018-07-24T04:38:45.726Z,3792.00
2018-07-24T04:39:45.660Z,3856.00
2018-07-24T04:40:45.545Z,3920.00
2018-07-24T04:41:45.459Z,3980.00
2018-07-24T04:42:45.400Z,4040.00
2018-07-24T04:43:45.278Z,4096.00
2018-07-24T04:44:45.280Z,4148.00
2018-07-24T04:45:45.096Z,4204.00
2018-07-24T04:46:45.011Z,4264.00
2018-07-24T04:47:44.948Z,4316.00
2018-07-24T04:48:44.829Z,4380.00
2018-07-24T04:49:44.736Z,4444.00
2018-07-24T04:50:44.649Z,4504.00
2018-07-24T04:51:44.660Z,4572.00
2018-07-24T04:52:44.504Z,4640.00
2018-07-24T04:53:44.377Z,4712.00
2018-07-24T04:54:44.291Z,4796.00
2018-07-24T04:55:44.201Z,4892.00
2018-07-24T04:56:44.110Z,4992.00
2018-07-24T04:57:44.051Z,5084.00
2018-07-24T04:58:44.022Z,5100.00
2018-07-24T04:59:43.842Z,5144.00
2018-07-24T05:00:43.753Z,5232.00
2018-07-24T05:01:43.667Z,5276.00
2018-07-24T05:02:43.706Z,5556.00
2018-07-24T05:03:43.501Z,5796.00
2018-07-24T05:04:43.396Z,5912.00
2018-07-24T05:05:43.400Z,5680.00
2018-07-24T05:06:43.221Z,5500.00
2018-07-24T05:07:43.158Z,5524.00
2018-07-24T05:08:43.042Z,5540.00
2018-07-24T05:09:42.949Z,5588.00
2018-07-24T05:10:42.863Z,5764.00
2018-07-24T05:11:42.771Z,6416.00
2018-07-24T05:12:42.808Z,7292.00
2018-07-24T05:13:42.597Z,6736.00
2018-07-24T05:14:42.510Z,6064.00
2018-07-24T05:15:42.417Z,6160.00
2018-07-24T05:16:42.345Z,6064.00
2018-07-24T05:17:42.275Z,6208.00
2018-07-24T05:18:42.155Z,6352.00
2018-07-24T05:19:42.157Z,6352.00
2018-07-24T05:20:41.979Z,6300.00
2018-07-24T05:21:41.889Z,6288.00
2018-07-24T05:22:41.831Z,6292.00
2018-07-24T05:23:41.758Z,6300.00
2018-07-24T05:24:41.660Z,6348.00
2018-07-24T05:25:41.548Z,6412.00
2018-07-24T05:26:41.541Z,6456.00
2018-07-24T05:27:41.392Z,6468.00
2018-07-24T05:28:41.273Z,6588.00
2018-07-24T05:29:41.185Z,7008.00
2018-07-24T05:30:41.099Z,7048.00
2018-07-24T05:31:41.009Z,6756.00
2018-07-24T05:32:40.953Z,6916.00
2018-07-24T05:33:40.928Z,7640.00
2018-07-24T05:34:40.746Z,9212.00
2018-07-24T05:35:40.655Z,9760.00
2018-07-24T05:36:40.571Z,9036.00
2018-07-24T05:37:40.514Z,8524.00
2018-07-24T05:38:40.426Z,8040.00
2018-07-24T05:39:40.308Z,7588.00
2018-07-24T05:40:40.314Z,7740.00
2018-07-24T05:41:40.134Z,7432.00
2018-07-24T05:42:40.081Z,7004.00
2018-07-24T05:43:39.961Z,7088.00
2018-07-24T05:44:39.873Z,7104.00
2018-07-24T05:45:39.789Z,7192.00
2018-07-24T05:46:39.699Z,7368.00
2018-07-24T05:47:39.735Z,7732.00
2018-07-24T05:48:39.551Z,8632.00
2018-07-24T05:49:39.439Z,10616.00
2018-07-24T05:50:39.354Z,12824.00
2018-07-24T05:51:39.267Z,11008.00
2018-07-24T05:52:39.207Z,11280.00
2018-07-24T05:53:39.106Z,10548.00
2018-07-24T05:54:39.098Z,7952.00
2018-07-24T05:55:38.921Z,7624.00
2018-07-24T05:56:38.832Z,8192.00
2018-07-24T05:57:38.749Z,9424.00
2018-07-24T05:58:38.689Z,9396.00
2018-07-24T05:59:38.570Z,8184.00
2018-07-24T06:00:38.488Z,7504.00
2018-07-24T06:01:38.402Z,7812.00
2018-07-24T06:02:38.317Z,8100.00
2018-07-24T06:03:38.260Z,9468.00
2018-07-24T06:04:38.142Z,10132.00
2018-07-24T06:05:38.057Z,11092.00
2018-07-24T06:06:37.971Z,11400.00
2018-07-24T06:07:37.894Z,9956.00
2018-07-24T06:08:37.836Z,9444.00
2018-07-24T06:09:37.714Z,8480.00
2018-07-24T06:10:37.627Z,8096.00
2018-07-24T06:11:37.544Z,8288.00
2018-07-24T06:12:37.462Z,9684.00
2018-07-24T06:13:37.405Z,12668.00
2018-07-24T06:14:37.287Z,11004.00
2018-07-24T06:15:37.200Z,8444.00
2018-07-24T06:16:37.166Z,8420.00
2018-07-24T06:17:37.032Z,8648.00
2018-07-24T06:18:36.978Z,8648.00
2018-07-24T06:19:36.857Z,8548.00
2018-07-24T06:20:36.775Z,8392.00
2018-07-24T06:21:36.690Z,8300.00
2018-07-24T06:22:36.603Z,8364.00
2018-07-24T06:23:36.567Z,8404.00
2018-07-24T06:24:36.434Z,8488.00
2018-07-24T06:25:36.353Z,8572.00
2018-07-24T06:26:36.262Z,8740.00
2018-07-24T06:27:36.181Z,8892.00
2018-07-24T06:28:36.127Z,8712.00
2018-07-24T06:29:36.013Z,8680.00
2018-07-24T06:30:35.925Z,8840.00
2018-07-24T06:31:35.840Z,8944.00
2018-07-24T06:32:35.753Z,8888.00
2018-07-24T06:33:35.701Z,8912.00
2018-07-24T06:34:35.584Z,9100.00
2018-07-24T06:35:35.500Z,9284.00
2018-07-24T06:36:35.416Z,9460.00
2018-07-24T06:37:35.331Z,10720.00
2018-07-24T06:38:35.274Z,11080.00
2018-07-24T06:39:35.200Z,10792.00
2018-07-24T06:40:35.090Z,10668.00
2018-07-24T06:41:34.992Z,10228.00
2018-07-24T06:42:34.906Z,10628.00
2018-07-24T06:43:34.852Z,11828.00
2018-07-24T06:44:34.767Z,13144.00
2018-07-24T06:45:34.655Z,13592.00
2018-07-24T06:46:34.568Z,14540.00
2018-07-24T06:47:34.486Z,18752.00
2018-07-24T06:48:34.428Z,26144.00
2018-07-24T06:49:34.314Z,30400.00
2018-07-24T06:50:34.232Z,31616.00
2018-07-24T06:51:34.248Z,32672.00
2018-07-24T06:52:34.062Z,32832.00
2018-07-24T06:53:34.009Z,32480.00
2018-07-24T06:54:33.896Z,32672.00
2018-07-24T06:55:33.809Z,32800.00
2018-07-24T06:56:33.777Z,33216.00
2018-07-24T06:57:33.648Z,33664.00
2018-07-24T06:58:33.590Z,35616.00
2018-07-24T06:59:33.476Z,38112.00
2018-07-24T07:00:33.440Z,39328.00
2018-07-24T07:01:33.313Z,39200.00
2018-07-24T07:02:33.231Z,38112.00
2018-07-24T07:03:33.194Z,36544.00
2018-07-24T07:04:33.065Z,35776.00
2018-07-24T07:05:32.984Z,37088.00
2018-07-24T07:06:32.903Z,38368.00
2018-07-24T07:07:32.860Z,37504.00
2018-07-24T07:08:32.770Z,36800.00
2018-07-24T07:09:32.661Z,36608.00
2018-07-24T07:10:32.576Z,35872.00
2018-07-24T07:11:32.494Z,35776.00
2018-07-24T07:12:32.415Z,35424.00
2018-07-24T07:13:32.459Z,35200.00
2018-07-24T07:14:32.257Z,35296.00
2018-07-24T07:15:32.173Z,35808.00
2018-07-24T07:16:32.094Z,36256.00
2018-07-24T07:17:32.108Z,36544.00
2018-07-24T07:18:31.967Z,36352.00
2018-07-24T07:19:31.858Z,36352.00
2018-07-24T07:20:31.785Z,36416.00
2018-07-24T07:21:31.702Z,36640.00
2018-07-24T07:22:31.620Z,36960.00
2018-07-24T07:23:31.679Z,31840.00
2018-07-24T07:24:31.557Z,38240.00
2018-07-24T07:25:31.382Z,38432.00
2018-07-24T07:26:31.309Z,38656.00
2018-07-24T07:27:31.223Z,38784.00
2018-07-24T07:28:31.181Z,37440.00
2018-07-24T07:29:31.068Z,36608.00
2018-07-24T07:30:30.994Z,38432.00
2018-07-24T07:31:31.006Z,40448.00
2018-07-24T07:32:30.896Z,41344.00
2018-07-24T07:33:30.758Z,42752.00
2018-07-24T07:34:30.711Z,47104.00
2018-07-24T07:35:30.601Z,41088.00
2018-07-24T07:36:30.520Z,47296.00
2018-07-24T07:37:30.444Z,49504.00
2018-07-24T07:38:30.454Z,49600.00
2018-07-24T07:39:30.319Z,50496.00
2018-07-24T07:40:30.211Z,51744.00
2018-07-24T07:41:30.135Z,51200.00
2018-07-24T07:42:30.058Z,49632.00
2018-07-24T07:43:29.980Z,53568.00
2018-07-24T07:44:29.930Z,53152.00
2018-07-24T07:45:29.914Z,56736.00
2018-07-24T07:46:29.750Z,55296.00
2018-07-24T07:47:29.671Z,55040.00
2018-07-24T07:48:29.597Z,48864.00
2018-07-24T07:49:29.548Z,53728.00
2018-07-24T07:50:29.444Z,54144.00
2018-07-24T07:51:29.389Z,58112.00
2018-07-24T07:52:29.398Z,64448.00
2018-07-24T07:53:29.209Z,60192.00
2018-07-24T07:54:29.164Z,60256.00
2018-07-24T07:55:29.055Z,61152.00
2018-07-24T07:56:28.977Z,56960.00
2018-07-24T07:57:28.902Z,57536.00
2018-07-24T07:58:28.825Z,59456.00
2018-07-24T07:59:28.872Z,59936.00
2018-07-24T08:00:28.672Z,59456.00
2018-07-24T08:01:28.601Z,55776.00
2018-07-24T08:02:28.576Z,52128.00
2018-07-24T08:03:28.444Z,54336.00
2018-07-24T08:04:28.513Z,55136.00
2018-07-24T08:05:28.290Z,56128.00
2018-07-24T08:06:28.311Z,54944.00
2018-07-24T08:07:28.136Z,55296.00
2018-07-24T08:08:28.066Z,60928.00
2018-07-24T08:09:28.020Z,63104.00
2018-07-24T08:10:27.909Z,63424.00
2018-07-24T08:11:27.832Z,61728.00
2018-07-24T08:12:27.788Z,62496.00
2018-07-24T08:13:27.776Z,63840.00
2018-07-24T08:14:27.635Z,65152.00
2018-07-24T08:15:27.531Z,64640.00
2018-07-24T08:16:27.451Z,64352.00
2018-07-24T08:17:27.376Z,65024.00
2018-07-24T08:18:27.299Z,63424.00
2018-07-24T08:19:27.256Z,63744.00
2018-07-24T08:20:27.236Z,65024.00
2018-07-24T08:21:27.070Z,62656.00
2018-07-24T08:22:27.002Z,65536.00
2018-07-24T08:23:26.917Z,70560.00
2018-07-24T08:24:26.877Z,74688.00
2018-07-24T08:25:26.771Z,74016.00
2018-07-24T08:26:26.700Z,74880.00
2018-07-24T08:27:26.719Z,73728.00
2018-07-24T08:28:26.538Z,74144.00
2018-07-24T08:29:26.497Z,77472.00
2018-07-24T08:30:26.386Z,74400.00
2018-07-24T08:31:26.309Z,70592.00
2018-07-24T08:32:26.237Z,73248.00
2018-07-24T08:33:26.161Z,75168.00
2018-07-24T08:34:26.208Z,72160.00
2018-07-24T08:35:26.004Z,71456.00
2018-07-24T08:36:25.933Z,72896.00
2018-07-24T08:37:25.859Z,71680.00
2018-07-24T08:38:25.780Z,69024.00
2018-07-24T08:39:25.752Z,69280.00
2018-07-24T08:40:25.717Z,72512.00
2018-07-24T08:41:25.554Z,78752.00
2018-07-24T08:42:25.478Z,78784.00
2018-07-24T08:43:25.403Z,78624.00
2018-07-24T08:44:25.358Z,77440.00
2018-07-24T08:45:25.251Z,78752.00
2018-07-24T08:46:25.174Z,86784.00
2018-07-24T08:47:25.101Z,84832.00
2018-07-24T08:48:25.027Z,77312.00
2018-07-24T08:49:24.982Z,79584.00
2018-07-24T08:50:24.877Z,85568.00
2018-07-24T08:51:24.799Z,77920.00
2018-07-24T08:52:24.746Z,82528.00
2018-07-24T08:53:25.043Z,83584.00
2018-07-24T08:54:24.735Z,78304.00
2018-07-24T08:55:24.662Z,83200.00
2018-07-24T08:56:24.425Z,83168.00
2018-07-24T08:57:24.346Z,80064.00
2018-07-24T08:58:24.269Z,79968.00
2018-07-24T08:59:24.196Z,80896.00
2018-07-24T09:00:24.154Z,79200.00
2018-07-24T09:01:24.044Z,77280.00
2018-07-24T09:02:23.970Z,80512.00
2018-07-24T09:03:23.909Z,83456.00
2018-07-24T09:04:23.846Z,81632.00
2018-07-24T09:05:23.741Z,80960.00
2018-07-24T09:06:23.667Z,83840.00
2018-07-24T09:07:23.590Z,84160.00
2018-07-24T09:08:23.519Z,81888.00
2018-07-24T09:09:23.448Z,80992.00
2018-07-24T09:10:23.394Z,81280.00
2018-07-24T09:11:23.289Z,87584.00
2018-07-24T09:12:23.213Z,78656.00
2018-07-24T09:13:23.138Z,77856.00
2018-07-24T09:14:23.066Z,77664.00
2018-07-24T09:15:23.020Z,78432.00
2018-07-24T09:16:22.919Z,83680.00
2018-07-24T09:17:22.840Z,85888.00
2018-07-24T09:18:22.761Z,84448.00
2018-07-24T09:19:22.688Z,79040.00
2018-07-24T09:20:22.640Z,74432.00
2018-07-24T09:21:22.538Z,67616.00
2018-07-24T09:22:22.462Z,65216.00
2018-07-24T09:23:22.432Z,66464.00
2018-07-24T09:24:22.311Z,74208.00
2018-07-24T09:25:22.264Z,74720.00
2018-07-24T09:26:22.159Z,74400.00
2018-07-24T09:27:22.082Z,78240.00
2018-07-24T09:28:22.009Z,80224.00
2018-07-24T09:29:21.936Z,81728.00
2018-07-24T09:30:21.888Z,86144.00
2018-07-24T09:31:21.788Z,88416.00
2018-07-24T09:32:21.705Z,90624.00
2018-07-24T09:33:21.632Z,86048.00
2018-07-24T09:34:21.558Z,82656.00
2018-07-24T09:35:21.515Z,85088.00
2018-07-24T09:36:21.411Z,89504.00
2018-07-24T09:37:21.332Z,88864.00
2018-07-24T09:38:21.255Z,90048.00
2018-07-24T09:39:21.179Z,94624.00
2018-07-24T09:40:21.142Z,97728.00
2018-07-24T09:41:21.034Z,96992.00
2018-07-24T09:42:20.982Z,93184.00
2018-07-24T09:43:20.881Z,97536.00
2018-07-24T09:44:20.804Z,96480.00
2018-07-24T09:45:20.764Z,95392.00
2018-07-24T09:46:20.655Z,95840.00
2018-07-24T09:47:20.580Z,100064.00
2018-07-24T09:48:20.504Z,97344.00
2018-07-24T09:49:20.431Z,97280.00
2018-07-24T09:50:20.388Z,95424.00
2018-07-24T09:51:20.279Z,102144.00
2018-07-24T09:52:20.209Z,94560.00
2018-07-24T09:53:20.129Z,97728.00
2018-07-24T09:54:20.064Z,96160.00
2018-07-24T09:55:20.009Z,98816.00
2018-07-24T09:56:19.917Z,99872.00
2018-07-24T09:57:19.832Z,104512.00
2018-07-24T09:58:19.753Z,103712.00
2018-07-24T09:59:19.697Z,103488.00
2018-07-24T10:00:19.634Z,98240.00
2018-07-24T10:01:19.529Z,97920.00
2018-07-24T10:02:19.453Z,91584.00
2018-07-24T10:03:19.377Z,80000.00
2018-07-24T10:04:19.304Z,90560.00
2018-07-24T10:05:19.282Z,82144.00
2018-07-24T10:06:19.151Z,85408.00
2018-07-24T10:07:19.079Z,88672.00
2018-07-24T10:08:19.001Z,84448.00
2018-07-24T10:09:18.928Z,87616.00
2018-07-24T10:10:18.885Z,87808.00
2018-07-24T10:11:18.778Z,94848.00
2018-07-24T10:12:18.734Z,96768.00
2018-07-24T10:13:18.712Z,96544.00
2018-07-24T10:14:18.554Z,87936.00
2018-07-24T10:15:18.508Z,87936.00
2018-07-24T10:16:18.403Z,91104.00
2018-07-24T10:17:18.327Z,84544.00
2018-07-24T10:18:18.253Z,91104.00
2018-07-24T10:19:18.288Z,87776.00
2018-07-24T10:20:18.134Z,93280.00
2018-07-24T10:21:18.033Z,89504.00
2018-07-24T10:22:17.973Z,82880.00
2018-07-24T10:23:17.880Z,81024.00
2018-07-24T10:24:17.864Z,81824.00
2018-07-24T10:25:17.757Z,87008.00
2018-07-24T10:26:17.747Z,95456.00
2018-07-24T10:27:17.581Z,97888.00
2018-07-24T10:28:17.504Z,103968.00
2018-07-24T10:29:17.428Z,101408.00
2018-07-24T10:30:17.393Z,105344.00
2018-07-24T10:31:17.278Z,103040.00
2018-07-24T10:32:17.205Z,95744.00
2018-07-24T10:33:17.242Z,94272.00
2018-07-24T10:34:17.057Z,45504.00
2018-07-24T10:35:16.986Z,98624.00
2018-07-24T10:36:16.935Z,100896.00
2018-07-24T10:37:16.834Z,108896.00
2018-07-24T10:38:16.756Z,100608.00
2018-07-24T10:39:16.688Z,98688.00
2018-07-24T10:40:16.702Z,104384.00
2018-07-24T10:41:16.564Z,102336.00
2018-07-24T10:42:16.457Z,96128.00
2018-07-24T10:43:16.385Z,100128.00
2018-07-24T10:44:16.328Z,96768.00
2018-07-24T10:45:16.237Z,104480.00
2018-07-24T10:46:16.189Z,101344.00
2018-07-24T10:47:16.178Z,103520.00
2018-07-24T10:48:16.012Z,102240.00
2018-07-24T10:49:15.974Z,93984.00
2018-07-24T10:50:15.867Z,95872.00
2018-07-24T10:51:15.819Z,94464.00
2018-07-24T10:52:15.732Z,91904.00
2018-07-24T10:53:15.638Z,93792.00
2018-07-24T10:54:15.656Z,103232.00
2018-07-24T10:55:15.489Z,90848.00
2018-07-24T10:56:15.448Z,97216.00
2018-07-24T10:57:15.343Z,98368.00
2018-07-24T10:58:15.269Z,91168.00
2018-07-24T10:59:15.192Z,95104.00
2018-07-24T11:00:15.118Z,98464.00
2018-07-24T11:01:15.164Z,105792.00
2018-07-24T11:02:14.968Z,104192.00
2018-07-24T11:03:14.894Z,102240.00
2018-07-24T11:04:14.834Z,97184.00
2018-07-24T11:05:14.775Z,99840.00
2018-07-24T11:06:14.701Z,97696.00
2018-07-24T11:07:14.600Z,89120.00
2018-07-24T11:08:14.614Z,95776.00
2018-07-24T11:09:14.448Z,108832.00
2018-07-24T11:10:14.374Z,97760.00
2018-07-24T11:11:14.331Z,107232.00
2018-07-24T11:12:14.226Z,117408.00
2018-07-24T11:13:14.159Z,105152.00
2018-07-24T11:14:14.080Z,108512.00
2018-07-24T11:15:14.096Z,109024.00
2018-07-24T11:16:13.960Z,104288.00
2018-07-24T11:17:13.857Z,103136.00
2018-07-24T11:18:13.781Z,104064.00
2018-07-24T11:19:13.707Z,102144.00
2018-07-24T11:20:13.633Z,107232.00
2018-07-24T11:21:13.590Z,95776.00
2018-07-24T11:22:13.667Z,96064.00
2018-07-24T11:23:13.553Z,105312.00
2018-07-24T11:24:13.334Z,104288.00
2018-07-24T11:25:13.260Z,106400.00
2018-07-24T11:26:13.217Z,103680.00
2018-07-24T11:27:13.113Z,93792.00
2018-07-24T11:28:13.067Z,94528.00
2018-07-24T11:29:13.057Z,98752.00
2018-07-24T11:30:12.893Z,96800.00
2018-07-24T11:31:12.847Z,100320.00
2018-07-24T11:32:12.746Z,99968.00
2018-07-24T11:33:12.668Z,94400.00
2018-07-24T11:34:12.598Z,98016.00
2018-07-24T11:35:12.520Z,100096.00
2018-07-24T11:36:12.574Z,92896.00
2018-07-24T11:37:12.369Z,94112.00
2018-07-24T11:38:12.293Z,98048.00
2018-07-24T11:39:12.222Z,92288.00
2018-07-24T11:40:12.146Z,96192.00
2018-07-24T11:41:12.105Z,98432.00
2018-07-24T11:42:12.094Z,92992.00
2018-07-24T11:43:11.923Z,91584.00
2018-07-24T11:44:11.890Z,88992.00
2018-07-24T11:45:11.776Z,93184.00
2018-07-24T11:46:11.736Z,83776.00
2018-07-24T11:47:11.628Z,90016.00
2018-07-24T11:48:11.557Z,99072.00
2018-07-24T11:49:11.481Z,91200.00
2018-07-24T11:50:11.409Z,101184.00
2018-07-24T11:51:11.361Z,105888.00
2018-07-24T11:52:11.258Z,91136.00
2018-07-24T11:53:11.183Z,90720.00
2018-07-24T11:54:11.111Z,89472.00
2018-07-24T11:55:11.035Z,82368.00
2018-07-24T11:56:11.086Z,81792.00
2018-07-24T11:57:10.900Z,83552.00
2018-07-24T11:58:10.811Z,84128.00
2018-07-24T11:59:10.739Z,85760.00
2018-07-24T12:00:10.666Z,89024.00
2018-07-24T12:01:10.622Z,19168.00
2018-07-24T12:02:10.518Z,16136.00
2018-07-24T12:03:10.441Z,83392.00
2018-07-24T12:04:10.371Z,83584.00
2018-07-24T12:05:10.297Z,84576.00
2018-07-24T12:06:10.250Z,81536.00
2018-07-24T12:07:10.143Z,82592.00
2018-07-24T12:08:10.073Z,89760.00
2018-07-24T12:09:10.019Z,87904.00
2018-07-24T12:10:09.924Z,91328.00
2018-07-24T12:11:09.880Z,96000.00